sensor_id;sensor_type;location;lat;lon;timestamp;temperature;humidity
35563;DHT22;21665;40.108;18.302;2022-10-16T00:01:42;13.80;99.90
35563;DHT22;21665;40.108;18.302;2022-10-16T00:04:13;13.80;99.90
35563;DHT22;21665;40.108;18.302;2022-10-16T00:06:40;13.80;99.90
35563;DHT22;21665;40.108;18.302;2022-10-16T00:09:07;13.90;99.90
35563;DHT22;21665;40.108;18.302;2022-10-16T00:11:35;13.90;99.90
35563;DHT22;21665;40.108;18.302;2022-10-16T00:14:07;13.90;99.90
35563;DHT22;21665;40.108;18.302;2022-10-16T00:16:35;14.00;99.90
35563;DHT22;21665;40.108;18.302;2022-10-16T00:19:02;14.00;99.90
35563;DHT22;21665;40.108;18.302;2022-10-16T00:21:30;14.10;99.90
35563;DHT22;21665;40.108;18.302;2022-10-16T00:24:01;14.00;99.90
35563;DHT22;21665;40.108;18.302;2022-10-16T00:26:29;14.00;99.90
35563;DHT22;21665;40.108;18.302;2022-10-16T00:28:56;14.00;99.90
35563;DHT22;21665;40.108;18.302;2022-10-16T00:31:24;14.00;99.90
35563;DHT22;21665;40.108;18.302;2022-10-16T00:33:54;14.00;99.90
35563;DHT22;21665;40.108;18.302;2022-10-16T00:36:23;14.10;99.90
35563;DHT22;21665;40.108;18.302;2022-10-16T00:38:57;14.00;99.90
35563;DHT22;21665;40.108;18.302;2022-10-16T00:41:26;14.00;99.90
35563;DHT22;21665;40.108;18.302;2022-10-16T00:43:59;14.00;99.90
35563;DHT22;21665;40.108;18.302;2022-10-16T00:49:17;14.00;99.90
35563;DHT22;21665;40.108;18.302;2022-10-16T00:51:51;14.00;99.90
35563;DHT22;21665;40.108;18.302;2022-10-16T00:54:28;14.00;99.90
35563;DHT22;21665;40.108;18.302;2022-10-16T00:57:02;14.00;99.90
35563;DHT22;21665;40.108;18.302;2022-10-16T00:59:34;14.00;99.90
35563;DHT22;21665;40.108;18.302;2022-10-16T01:02:04;14.00;99.90
35563;DHT22;21665;40.108;18.302;2022-10-16T01:04:42;14.00;99.90
35563;DHT22;21665;40.108;18.302;2022-10-16T01:07:46;14.00;99.90
35563;DHT22;21665;40.108;18.302;2022-10-16T01:12:53;13.90;99.90
35563;DHT22;21665;40.108;18.302;2022-10-16T01:15:28;13.80;99.90
35563;DHT22;21665;40.108;18.302;2022-10-16T01:18:06;13.80;99.90
35563;DHT22;21665;40.108;18.302;2022-10-16T01:21:20;13.80;99.90
35563;DHT22;21665;40.108;18.302;2022-10-16T01:29:20;13.60;99.90
35563;DHT22;21665;40.108;18.302;2022-10-16T01:31:59;13.60;99.90
35563;DHT22;21665;40.108;18.302;2022-10-16T01:34:37;13.60;99.90
35563;DHT22;21665;40.108;18.302;2022-10-16T01:37:14;13.60;99.90
35563;DHT22;21665;40.108;18.302;2022-10-16T01:39:46;13.60;99.90
35563;DHT22;21665;40.108;18.302;2022-10-16T01:42:21;13.60;99.90
35563;DHT22;21665;40.108;18.302;2022-10-16T01:44:51;13.60;99.90
35563;DHT22;21665;40.108;18.302;2022-10-16T01:47:23;13.70;99.90
35563;DHT22;21665;40.108;18.302;2022-10-16T01:49:52;13.70;99.90
35563;DHT22;21665;40.108;18.302;2022-10-16T01:52:23;13.70;99.90
35563;DHT22;21665;40.108;18.302;2022-10-16T01:54:54;13.70;99.90
35563;DHT22;21665;40.108;18.302;2022-10-16T01:57:24;13.80;99.90
35563;DHT22;21665;40.108;18.302;2022-10-16T01:59:56;13.80;99.90
35563;DHT22;21665;40.108;18.302;2022-10-16T02:02:28;13.80;99.90
35563;DHT22;21665;40.108;18.302;2022-10-16T02:07:43;13.70;99.90
35563;DHT22;21665;40.108;18.302;2022-10-16T02:10:10;13.70;99.90
35563;DHT22;21665;40.108;18.302;2022-10-16T02:12:41;13.70;99.90
35563;DHT22;21665;40.108;18.302;2022-10-16T02:15:10;13.70;99.90
35563;DHT22;21665;40.108;18.302;2022-10-16T02:17:37;13.60;99.90
35563;DHT22;21665;40.108;18.302;2022-10-16T02:20:05;13.60;99.90
35563;DHT22;21665;40.108;18.302;2022-10-16T02:22:35;13.60;99.90
35563;DHT22;21665;40.108;18.302;2022-10-16T02:25:15;13.60;99.90
35563;DHT22;21665;40.108;18.302;2022-10-16T02:27:53;13.60;99.90
35563;DHT22;21665;40.108;18.302;2022-10-16T02:32:54;13.60;99.90
35563;DHT22;21665;40.108;18.302;2022-10-16T02:35:22;13.60;99.90
35563;DHT22;21665;40.108;18.302;2022-10-16T02:37:50;13.70;99.90
35563;DHT22;21665;40.108;18.302;2022-10-16T02:40:18;13.70;99.90
35563;DHT22;21665;40.108;18.302;2022-10-16T02:42:51;13.70;99.90
35563;DHT22;21665;40.108;18.302;2022-10-16T02:45:19;13.60;99.90
35563;DHT22;21665;40.108;18.302;2022-10-16T02:47:46;13.60;99.90
35563;DHT22;21665;40.108;18.302;2022-10-16T02:50:12;13.60;99.90
35563;DHT22;21665;40.108;18.302;2022-10-16T02:52:39;13.50;99.90
35563;DHT22;21665;40.108;18.302;2022-10-16T02:55:06;13.40;99.90
35563;DHT22;21665;40.108;18.302;2022-10-16T02:57:33;13.40;99.90
35563;DHT22;21665;40.108;18.302;2022-10-16T03:00:02;13.30;99.90
35563;DHT22;21665;40.108;18.302;2022-10-16T03:02:29;13.30;99.90
35563;DHT22;21665;40.108;18.302;2022-10-16T03:04:56;13.30;99.90
35563;DHT22;21665;40.108;18.302;2022-10-16T03:07:23;13.40;99.90
35563;DHT22;21665;40.108;18.302;2022-10-16T03:09:49;13.50;99.90
35563;DHT22;21665;40.108;18.302;2022-10-16T03:12:16;13.50;99.90
35563;DHT22;21665;40.108;18.302;2022-10-16T03:14:43;13.50;99.90
35563;DHT22;21665;40.108;18.302;2022-10-16T03:17:10;13.50;99.90
35563;DHT22;21665;40.108;18.302;2022-10-16T03:19:37;13.50;99.90
35563;DHT22;21665;40.108;18.302;2022-10-16T03:22:03;13.50;99.90
35563;DHT22;21665;40.108;18.302;2022-10-16T03:24:31;13.50;99.90
35563;DHT22;21665;40.108;18.302;2022-10-16T03:26:58;13.50;99.90
35563;DHT22;21665;40.108;18.302;2022-10-16T03:29:24;13.50;99.90
35563;DHT22;21665;40.108;18.302;2022-10-16T03:31:52;13.50;99.90
35563;DHT22;21665;40.108;18.302;2022-10-16T03:34:18;13.40;99.90
35563;DHT22;21665;40.108;18.302;2022-10-16T03:36:45;13.50;99.90
35563;DHT22;21665;40.108;18.302;2022-10-16T03:39:11;13.40;99.90
35563;DHT22;21665;40.108;18.302;2022-10-16T03:41:38;13.40;99.90
35563;DHT22;21665;40.108;18.302;2022-10-16T03:44:05;13.40;99.90
35563;DHT22;21665;40.108;18.302;2022-10-16T03:46:32;13.40;99.90
35563;DHT22;21665;40.108;18.302;2022-10-16T03:49:01;13.40;99.90
35563;DHT22;21665;40.108;18.302;2022-10-16T03:51:28;13.40;99.90
35563;DHT22;21665;40.108;18.302;2022-10-16T03:53:55;13.30;99.90
35563;DHT22;21665;40.108;18.302;2022-10-16T03:56:21;13.30;99.90
35563;DHT22;21665;40.108;18.302;2022-10-16T03:58:48;13.30;99.90
35563;DHT22;21665;40.108;18.302;2022-10-16T04:01:15;13.30;99.90
35563;DHT22;21665;40.108;18.302;2022-10-16T04:03:41;13.30;99.90
35563;DHT22;21665;40.108;18.302;2022-10-16T04:06:08;13.30;99.90
35563;DHT22;21665;40.108;18.302;2022-10-16T04:08:35;13.30;99.90
35563;DHT22;21665;40.108;18.302;2022-10-16T04:11:03;13.30;99.90
35563;DHT22;21665;40.108;18.302;2022-10-16T04:13:33;13.30;99.90
35563;DHT22;21665;40.108;18.302;2022-10-16T04:15:59;13.30;99.90
35563;DHT22;21665;40.108;18.302;2022-10-16T04:18:26;13.30;99.90
35563;DHT22;21665;40.108;18.302;2022-10-16T04:20:54;13.30;99.90
35563;DHT22;21665;40.108;18.302;2022-10-16T04:23:21;13.20;99.90
35563;DHT22;21665;40.108;18.302;2022-10-16T04:25:49;13.20;99.90
35563;DHT22;21665;40.108;18.302;2022-10-16T04:28:16;13.20;99.90
35563;DHT22;21665;40.108;18.302;2022-10-16T04:30:43;13.20;99.90
35563;DHT22;21665;40.108;18.302;2022-10-16T04:33:09;13.20;99.90
35563;DHT22;21665;40.108;18.302;2022-10-16T04:35:36;13.20;99.90
35563;DHT22;21665;40.108;18.302;2022-10-16T04:38:03;13.20;99.90
35563;DHT22;21665;40.108;18.302;2022-10-16T04:40:30;13.20;99.90
35563;DHT22;21665;40.108;18.302;2022-10-16T04:43:04;13.20;99.90
35563;DHT22;21665;40.108;18.302;2022-10-16T04:45:31;13.20;99.90
35563;DHT22;21665;40.108;18.302;2022-10-16T04:47:59;13.20;99.90
35563;DHT22;21665;40.108;18.302;2022-10-16T04:50:26;13.20;99.90
35563;DHT22;21665;40.108;18.302;2022-10-16T04:53:05;13.30;99.90
35563;DHT22;21665;40.108;18.302;2022-10-16T04:55:33;13.20;99.90
35563;DHT22;21665;40.108;18.302;2022-10-16T04:57:59;13.10;99.90
35563;DHT22;21665;40.108;18.302;2022-10-16T05:00:27;13.10;99.90
35563;DHT22;21665;40.108;18.302;2022-10-16T05:02:53;13.10;99.90
35563;DHT22;21665;40.108;18.302;2022-10-16T05:05:20;13.00;99.90
35563;DHT22;21665;40.108;18.302;2022-10-16T05:07:53;13.00;99.90
35563;DHT22;21665;40.108;18.302;2022-10-16T05:10:20;13.10;99.90
35563;DHT22;21665;40.108;18.302;2022-10-16T05:12:47;13.20;99.90
35563;DHT22;21665;40.108;18.302;2022-10-16T05:15:13;13.30;99.90
35563;DHT22;21665;40.108;18.302;2022-10-16T05:17:40;13.40;99.90
35563;DHT22;21665;40.108;18.302;2022-10-16T05:20:07;13.50;99.90
35563;DHT22;21665;40.108;18.302;2022-10-16T05:22:34;13.50;99.90
35563;DHT22;21665;40.108;18.302;2022-10-16T05:25:01;13.60;99.90
35563;DHT22;21665;40.108;18.302;2022-10-16T05:27:28;13.60;99.90
35563;DHT22;21665;40.108;18.302;2022-10-16T05:29:54;13.70;99.90
35563;DHT22;21665;40.108;18.302;2022-10-16T05:32:21;13.80;99.90
35563;DHT22;21665;40.108;18.302;2022-10-16T05:34:47;13.80;99.90
35563;DHT22;21665;40.108;18.302;2022-10-16T05:37:14;13.90;99.90
35563;DHT22;21665;40.108;18.302;2022-10-16T05:39:41;14.00;99.90
35563;DHT22;21665;40.108;18.302;2022-10-16T05:42:07;14.00;99.90
35563;DHT22;21665;40.108;18.302;2022-10-16T05:44:34;14.10;99.90
35563;DHT22;21665;40.108;18.302;2022-10-16T05:47:01;14.20;99.90
35563;DHT22;21665;40.108;18.302;2022-10-16T05:49:28;14.30;99.90
35563;DHT22;21665;40.108;18.302;2022-10-16T05:51:56;14.40;99.90
35563;DHT22;21665;40.108;18.302;2022-10-16T05:54:22;14.60;99.90
35563;DHT22;21665;40.108;18.302;2022-10-16T05:56:49;14.70;99.90
35563;DHT22;21665;40.108;18.302;2022-10-16T05:59:16;14.90;99.90
35563;DHT22;21665;40.108;18.302;2022-10-16T06:01:42;15.00;99.90
35563;DHT22;21665;40.108;18.302;2022-10-16T06:04:09;15.10;99.90
35563;DHT22;21665;40.108;18.302;2022-10-16T06:06:36;15.60;99.90
35563;DHT22;21665;40.108;18.302;2022-10-16T06:09:03;15.90;99.90
35563;DHT22;21665;40.108;18.302;2022-10-16T06:11:31;16.30;99.90
35563;DHT22;21665;40.108;18.302;2022-10-16T06:14:00;16.70;99.90
35563;DHT22;21665;40.108;18.302;2022-10-16T06:16:29;17.00;99.90
35563;DHT22;21665;40.108;18.302;2022-10-16T06:18:57;17.30;99.90
35563;DHT22;21665;40.108;18.302;2022-10-16T06:21:26;17.50;99.90
35563;DHT22;21665;40.108;18.302;2022-10-16T06:23:55;17.60;99.90
35563;DHT22;21665;40.108;18.302;2022-10-16T06:26:28;17.60;99.90
35563;DHT22;21665;40.108;18.302;2022-10-16T06:28:56;17.80;99.90
35563;DHT22;21665;40.108;18.302;2022-10-16T06:31:23;18.00;99.90
35563;DHT22;21665;40.108;18.302;2022-10-16T06:33:54;18.10;99.90
35563;DHT22;21665;40.108;18.302;2022-10-16T06:36:23;18.30;99.90
35563;DHT22;21665;40.108;18.302;2022-10-16T06:38:51;18.50;99.90
35563;DHT22;21665;40.108;18.302;2022-10-16T06:41:20;18.60;99.90
35563;DHT22;21665;40.108;18.302;2022-10-16T06:43:47;18.50;99.90
35563;DHT22;21665;40.108;18.302;2022-10-16T06:46:17;18.60;99.90
35563;DHT22;21665;40.108;18.302;2022-10-16T06:48:45;18.60;99.90
35563;DHT22;21665;40.108;18.302;2022-10-16T06:51:14;18.70;99.90
35563;DHT22;21665;40.108;18.302;2022-10-16T06:53:50;18.90;99.90
35563;DHT22;21665;40.108;18.302;2022-10-16T06:56:20;19.10;99.90
35563;DHT22;21665;40.108;18.302;2022-10-16T06:58:48;19.20;99.90
35563;DHT22;21665;40.108;18.302;2022-10-16T07:01:17;19.60;99.90
35563;DHT22;21665;40.108;18.302;2022-10-16T07:03:54;19.80;99.90
35563;DHT22;21665;40.108;18.302;2022-10-16T07:06:30;20.10;99.90
35563;DHT22;21665;40.108;18.302;2022-10-16T07:09:40;20.00;99.90
35563;DHT22;21665;40.108;18.302;2022-10-16T07:12:07;20.10;99.90
35563;DHT22;21665;40.108;18.302;2022-10-16T07:14:33;20.20;99.90
35563;DHT22;21665;40.108;18.302;2022-10-16T07:17:00;20.80;99.90
35563;DHT22;21665;40.108;18.302;2022-10-16T07:19:27;20.90;99.90
35563;DHT22;21665;40.108;18.302;2022-10-16T07:21:54;20.90;99.90
35563;DHT22;21665;40.108;18.302;2022-10-16T07:24:22;21.00;99.90
35563;DHT22;21665;40.108;18.302;2022-10-16T07:26:49;21.00;99.90
35563;DHT22;21665;40.108;18.302;2022-10-16T07:29:19;20.90;99.90
35563;DHT22;21665;40.108;18.302;2022-10-16T07:31:54;21.00;99.90
35563;DHT22;21665;40.108;18.302;2022-10-16T07:34:24;20.90;99.90
35563;DHT22;21665;40.108;18.302;2022-10-16T07:36:59;21.00;99.90
35563;DHT22;21665;40.108;18.302;2022-10-16T07:39:28;21.30;99.90
35563;DHT22;21665;40.108;18.302;2022-10-16T07:41:54;21.80;99.90
35563;DHT22;21665;40.108;18.302;2022-10-16T07:44:24;22.00;99.90
35563;DHT22;21665;40.108;18.302;2022-10-16T07:46:51;22.10;99.90
35563;DHT22;21665;40.108;18.302;2022-10-16T07:49:17;21.70;99.90
35563;DHT22;21665;40.108;18.302;2022-10-16T07:51:44;21.40;99.90
35563;DHT22;21665;40.108;18.302;2022-10-16T07:54:10;21.30;99.90
35563;DHT22;21665;40.108;18.302;2022-10-16T07:56:37;21.40;99.90
35563;DHT22;21665;40.108;18.302;2022-10-16T08:02:51;21.40;99.90
35563;DHT22;21665;40.108;18.302;2022-10-16T08:05:23;21.40;99.90
35563;DHT22;21665;40.108;18.302;2022-10-16T08:08:05;21.40;99.90
35563;DHT22;21665;40.108;18.302;2022-10-16T08:10:56;21.30;99.90
35563;DHT22;21665;40.108;18.302;2022-10-16T08:13:30;21.10;99.90
35563;DHT22;21665;40.108;18.302;2022-10-16T08:16:00;21.10;99.90
35563;DHT22;21665;40.108;18.302;2022-10-16T08:18:33;21.10;99.90
35563;DHT22;21665;40.108;18.302;2022-10-16T08:21:14;21.20;99.90
35563;DHT22;21665;40.108;18.302;2022-10-16T08:23:42;21.40;99.90
35563;DHT22;21665;40.108;18.302;2022-10-16T08:26:22;21.50;99.90
35563;DHT22;21665;40.108;18.302;2022-10-16T08:28:51;21.40;99.90
35563;DHT22;21665;40.108;18.302;2022-10-16T08:50:40;21.00;99.90
35563;DHT22;21665;40.108;18.302;2022-10-16T08:53:09;21.10;99.90
35563;DHT22;21665;40.108;18.302;2022-10-16T08:55:41;21.30;99.90
35563;DHT22;21665;40.108;18.302;2022-10-16T08:58:20;21.50;99.90
35563;DHT22;21665;40.108;18.302;2022-10-16T09:00:55;21.60;99.90
35563;DHT22;21665;40.108;18.302;2022-10-16T09:06:07;21.90;99.90
35563;DHT22;21665;40.108;18.302;2022-10-16T09:22:44;22.20;99.90
35563;DHT22;21665;40.108;18.302;2022-10-16T09:25:19;22.20;99.90
35563;DHT22;21665;40.108;18.302;2022-10-16T09:27:48;22.30;99.90
35563;DHT22;21665;40.108;18.302;2022-10-16T09:30:21;22.20;99.90
35563;DHT22;21665;40.108;18.302;2022-10-16T09:32:51;22.00;99.90
35563;DHT22;21665;40.108;18.302;2022-10-16T09:35:58;22.00;99.90
35563;DHT22;21665;40.108;18.302;2022-10-16T09:38:27;22.10;99.90
35563;DHT22;21665;40.108;18.302;2022-10-16T09:40:57;22.10;99.90
35563;DHT22;21665;40.108;18.302;2022-10-16T09:43:25;22.00;99.90
35563;DHT22;21665;40.108;18.302;2022-10-16T09:45:59;22.00;99.90
35563;DHT22;21665;40.108;18.302;2022-10-16T09:48:42;22.10;99.90
35563;DHT22;21665;40.108;18.302;2022-10-16T09:51:35;22.10;99.90
35563;DHT22;21665;40.108;18.302;2022-10-16T09:54:20;22.20;99.90
35563;DHT22;21665;40.108;18.302;2022-10-16T09:56:47;22.30;99.90
35563;DHT22;21665;40.108;18.302;2022-10-16T09:59:20;22.40;99.90
35563;DHT22;21665;40.108;18.302;2022-10-16T10:01:52;22.40;99.90
35563;DHT22;21665;40.108;18.302;2022-10-16T10:04:20;22.50;99.90
35563;DHT22;21665;40.108;18.302;2022-10-16T10:06:49;22.50;99.90
35563;DHT22;21665;40.108;18.302;2022-10-16T10:09:21;22.60;99.90
35563;DHT22;21665;40.108;18.302;2022-10-16T10:11:54;22.70;99.90
35563;DHT22;21665;40.108;18.302;2022-10-16T10:17:01;22.30;99.90
35563;DHT22;21665;40.108;18.302;2022-10-16T10:19:28;22.30;99.90
35563;DHT22;21665;40.108;18.302;2022-10-16T10:21:55;22.40;99.90
35563;DHT22;21665;40.108;18.302;2022-10-16T10:24:23;22.50;99.90
35563;DHT22;21665;40.108;18.302;2022-10-16T10:27:10;22.50;99.90
35563;DHT22;21665;40.108;18.302;2022-10-16T10:30:21;22.50;99.90
35563;DHT22;21665;40.108;18.302;2022-10-16T10:41:35;22.50;99.90
35563;DHT22;21665;40.108;18.302;2022-10-16T10:44:26;22.50;99.90
35563;DHT22;21665;40.108;18.302;2022-10-16T10:55:40;22.30;99.90
35563;DHT22;21665;40.108;18.302;2022-10-16T11:01:35;22.20;99.90
35563;DHT22;21665;40.108;18.302;2022-10-16T11:06:44;22.50;99.90
35563;DHT22;21665;40.108;18.302;2022-10-16T11:09:30;22.40;99.90
35563;DHT22;21665;40.108;18.302;2022-10-16T11:12:27;22.30;99.90
35563;DHT22;21665;40.108;18.302;2022-10-16T11:15:10;22.40;99.90
35563;DHT22;21665;40.108;18.302;2022-10-16T11:21:08;22.50;99.90
35563;DHT22;21665;40.108;18.302;2022-10-16T11:27:03;22.70;99.90
35563;DHT22;21665;40.108;18.302;2022-10-16T11:29:32;22.80;99.90
35563;DHT22;21665;40.108;18.302;2022-10-16T11:32:22;22.80;99.90
35563;DHT22;21665;40.108;18.302;2022-10-16T11:34:57;22.40;99.90
35563;DHT22;21665;40.108;18.302;2022-10-16T11:37:43;22.50;99.90
35563;DHT22;21665;40.108;18.302;2022-10-16T11:40:30;22.40;99.90
35563;DHT22;21665;40.108;18.302;2022-10-16T11:43:15;22.30;99.90
35563;DHT22;21665;40.108;18.302;2022-10-16T11:45:51;22.30;99.90
35563;DHT22;21665;40.108;18.302;2022-10-16T11:51:21;22.60;99.90
35563;DHT22;21665;40.108;18.302;2022-10-16T11:56:32;22.30;99.90
35563;DHT22;21665;40.108;18.302;2022-10-16T11:59:30;22.20;99.90
35563;DHT22;21665;40.108;18.302;2022-10-16T12:07:43;22.20;99.90
35563;DHT22;21665;40.108;18.302;2022-10-16T12:10:41;22.20;99.90
35563;DHT22;21665;40.108;18.302;2022-10-16T12:13:31;22.30;99.90
35563;DHT22;21665;40.108;18.302;2022-10-16T12:18:40;22.20;99.90
35563;DHT22;21665;40.108;18.302;2022-10-16T12:21:08;22.20;99.90
35563;DHT22;21665;40.108;18.302;2022-10-16T12:23:38;22.10;99.90
35563;DHT22;21665;40.108;18.302;2022-10-16T12:26:06;22.10;99.90
35563;DHT22;21665;40.108;18.302;2022-10-16T12:28:33;22.10;99.90
35563;DHT22;21665;40.108;18.302;2022-10-16T12:31:05;22.20;99.90
35563;DHT22;21665;40.108;18.302;2022-10-16T12:33:59;22.00;99.90
35563;DHT22;21665;40.108;18.302;2022-10-16T12:36:34;22.00;99.90
35563;DHT22;21665;40.108;18.302;2022-10-16T12:39:02;22.10;99.90
35563;DHT22;21665;40.108;18.302;2022-10-16T12:41:40;22.10;99.90
35563;DHT22;21665;40.108;18.302;2022-10-16T12:44:42;22.00;99.90
35563;DHT22;21665;40.108;18.302;2022-10-16T12:47:38;21.90;99.90
35563;DHT22;21665;40.108;18.302;2022-10-16T12:52:53;22.10;99.90
35563;DHT22;21665;40.108;18.302;2022-10-16T12:55:21;22.10;99.90
35563;DHT22;21665;40.108;18.302;2022-10-16T13:06:40;22.00;99.90
35563;DHT22;21665;40.108;18.302;2022-10-16T13:15:05;21.80;99.90
35563;DHT22;21665;40.108;18.302;2022-10-16T13:17:40;21.80;99.90
35563;DHT22;21665;40.108;18.302;2022-10-16T13:20:46;21.90;99.90
35563;DHT22;21665;40.108;18.302;2022-10-16T13:23:36;21.90;99.90
35563;DHT22;21665;40.108;18.302;2022-10-16T13:26:44;21.90;99.90
35563;DHT22;21665;40.108;18.302;2022-10-16T13:29:13;21.90;99.90
35563;DHT22;21665;40.108;18.302;2022-10-16T13:31:44;22.00;99.90
35563;DHT22;21665;40.108;18.302;2022-10-16T13:34:19;21.90;99.90
35563;DHT22;21665;40.108;18.302;2022-10-16T13:36:51;21.80;99.90
35563;DHT22;21665;40.108;18.302;2022-10-16T13:39:31;21.90;99.90
35563;DHT22;21665;40.108;18.302;2022-10-16T13:42:24;21.90;99.90
35563;DHT22;21665;40.108;18.302;2022-10-16T13:44:54;21.90;99.90
35563;DHT22;21665;40.108;18.302;2022-10-16T13:47:26;21.90;99.90
35563;DHT22;21665;40.108;18.302;2022-10-16T13:50:02;22.00;99.90
35563;DHT22;21665;40.108;18.302;2022-10-16T13:52:31;21.90;99.90
35563;DHT22;21665;40.108;18.302;2022-10-16T13:54:59;21.80;99.90
35563;DHT22;21665;40.108;18.302;2022-10-16T13:57:26;21.80;99.90
35563;DHT22;21665;40.108;18.302;2022-10-16T13:59:53;21.80;99.90
35563;DHT22;21665;40.108;18.302;2022-10-16T14:02:31;21.80;99.90
35563;DHT22;21665;40.108;18.302;2022-10-16T14:05:03;21.90;99.90
35563;DHT22;21665;40.108;18.302;2022-10-16T14:07:33;21.90;99.90
35563;DHT22;21665;40.108;18.302;2022-10-16T14:10:04;21.80;99.90
35563;DHT22;21665;40.108;18.302;2022-10-16T14:12:35;21.80;99.90
35563;DHT22;21665;40.108;18.302;2022-10-16T14:15:02;21.80;99.90
35563;DHT22;21665;40.108;18.302;2022-10-16T14:17:32;21.80;99.90
35563;DHT22;21665;40.108;18.302;2022-10-16T14:20:05;21.80;99.90
35563;DHT22;21665;40.108;18.302;2022-10-16T14:22:38;21.70;99.90
35563;DHT22;21665;40.108;18.302;2022-10-16T14:28:00;21.60;99.90
35563;DHT22;21665;40.108;18.302;2022-10-16T14:30:29;21.50;99.90
35563;DHT22;21665;40.108;18.302;2022-10-16T14:33:02;21.50;99.90
35563;DHT22;21665;40.108;18.302;2022-10-16T14:37:57;21.20;99.90
35563;DHT22;21665;40.108;18.302;2022-10-16T14:40:31;21.20;99.90
35563;DHT22;21665;40.108;18.302;2022-10-16T14:45:35;21.10;99.90
35563;DHT22;21665;40.108;18.302;2022-10-16T14:48:16;21.00;99.90
35563;DHT22;21665;40.108;18.302;2022-10-16T14:50:43;21.00;99.90
35563;DHT22;21665;40.108;18.302;2022-10-16T14:53:14;21.00;99.90
35563;DHT22;21665;40.108;18.302;2022-10-16T14:55:42;20.90;99.90
35563;DHT22;21665;40.108;18.302;2022-10-16T14:58:19;20.90;99.90
35563;DHT22;21665;40.108;18.302;2022-10-16T15:00:49;20.80;99.90
35563;DHT22;21665;40.108;18.302;2022-10-16T15:03:25;20.80;99.90
35563;DHT22;21665;40.108;18.302;2022-10-16T15:05:52;20.70;99.90
35563;DHT22;21665;40.108;18.302;2022-10-16T15:08:19;20.70;99.90
35563;DHT22;21665;40.108;18.302;2022-10-16T15:10:46;20.60;99.90
35563;DHT22;21665;40.108;18.302;2022-10-16T15:13:14;20.50;99.90
35563;DHT22;21665;40.108;18.302;2022-10-16T15:15:48;20.50;99.90
35563;DHT22;21665;40.108;18.302;2022-10-16T15:18:15;20.30;99.90
35563;DHT22;21665;40.108;18.302;2022-10-16T15:20:49;20.30;99.90
35563;DHT22;21665;40.108;18.302;2022-10-16T15:23:20;20.30;99.90
35563;DHT22;21665;40.108;18.302;2022-10-16T15:25:50;20.20;99.90
35563;DHT22;21665;40.108;18.302;2022-10-16T15:28:18;20.10;99.90
35563;DHT22;21665;40.108;18.302;2022-10-16T15:30:46;20.00;99.90
35563;DHT22;21665;40.108;18.302;2022-10-16T15:33:17;20.00;99.90
35563;DHT22;21665;40.108;18.302;2022-10-16T15:35:48;19.90;99.90
35563;DHT22;21665;40.108;18.302;2022-10-16T15:38:17;19.90;99.90
35563;DHT22;21665;40.108;18.302;2022-10-16T15:40:45;19.90;99.90
35563;DHT22;21665;40.108;18.302;2022-10-16T15:43:12;19.80;99.90
35563;DHT22;21665;40.108;18.302;2022-10-16T15:45:39;19.70;99.90
35563;DHT22;21665;40.108;18.302;2022-10-16T15:48:09;19.70;99.90
35563;DHT22;21665;40.108;18.302;2022-10-16T15:50:37;19.60;99.90
35563;DHT22;21665;40.108;18.302;2022-10-16T15:53:04;19.60;99.90
35563;DHT22;21665;40.108;18.302;2022-10-16T15:55:31;19.50;99.90
35563;DHT22;21665;40.108;18.302;2022-10-16T15:58:00;19.40;99.90
35563;DHT22;21665;40.108;18.302;2022-10-16T16:00:26;19.30;99.90
35563;DHT22;21665;40.108;18.302;2022-10-16T16:02:56;19.30;99.90
35563;DHT22;21665;40.108;18.302;2022-10-16T16:05:23;19.30;99.90
35563;DHT22;21665;40.108;18.302;2022-10-16T16:07:50;19.20;99.90
35563;DHT22;21665;40.108;18.302;2022-10-16T16:10:17;19.20;99.90
35563;DHT22;21665;40.108;18.302;2022-10-16T16:12:47;19.10;99.90
35563;DHT22;21665;40.108;18.302;2022-10-16T16:15:20;19.00;99.90
35563;DHT22;21665;40.108;18.302;2022-10-16T16:17:48;19.00;99.90
35563;DHT22;21665;40.108;18.302;2022-10-16T16:20:16;18.90;99.90
35563;DHT22;21665;40.108;18.302;2022-10-16T16:22:43;18.80;99.90
35563;DHT22;21665;40.108;18.302;2022-10-16T16:25:10;18.80;99.90
35563;DHT22;21665;40.108;18.302;2022-10-16T16:27:36;18.70;99.90
35563;DHT22;21665;40.108;18.302;2022-10-16T16:30:06;18.70;99.90
35563;DHT22;21665;40.108;18.302;2022-10-16T16:32:34;18.60;99.90
35563;DHT22;21665;40.108;18.302;2022-10-16T16:35:02;18.60;99.90
35563;DHT22;21665;40.108;18.302;2022-10-16T16:37:30;18.50;99.90
35563;DHT22;21665;40.108;18.302;2022-10-16T16:39:56;18.50;99.90
35563;DHT22;21665;40.108;18.302;2022-10-16T16:42:26;18.50;99.90
35563;DHT22;21665;40.108;18.302;2022-10-16T16:44:54;18.40;99.90
35563;DHT22;21665;40.108;18.302;2022-10-16T16:47:21;18.40;99.90
35563;DHT22;21665;40.108;18.302;2022-10-16T16:49:48;18.30;99.90
35563;DHT22;21665;40.108;18.302;2022-10-16T16:52:16;18.30;99.90
35563;DHT22;21665;40.108;18.302;2022-10-16T16:54:43;18.30;99.90
35563;DHT22;21665;40.108;18.302;2022-10-16T16:57:21;18.30;99.90
35563;DHT22;21665;40.108;18.302;2022-10-16T16:59:51;18.20;99.90
35563;DHT22;21665;40.108;18.302;2022-10-16T17:02:18;18.20;99.90
35563;DHT22;21665;40.108;18.302;2022-10-16T17:04:45;18.10;99.90
35563;DHT22;21665;40.108;18.302;2022-10-16T17:07:12;18.10;99.90
35563;DHT22;21665;40.108;18.302;2022-10-16T17:09:39;18.10;99.90
35563;DHT22;21665;40.108;18.302;2022-10-16T17:12:05;18.00;99.90
35563;DHT22;21665;40.108;18.302;2022-10-16T17:14:32;18.00;99.90
35563;DHT22;21665;40.108;18.302;2022-10-16T17:16:58;17.90;99.90
35563;DHT22;21665;40.108;18.302;2022-10-16T17:19:25;17.90;99.90
35563;DHT22;21665;40.108;18.302;2022-10-16T17:21:52;17.90;99.90
35563;DHT22;21665;40.108;18.302;2022-10-16T17:24:19;17.80;99.90
35563;DHT22;21665;40.108;18.302;2022-10-16T17:26:47;17.80;99.90
35563;DHT22;21665;40.108;18.302;2022-10-16T17:29:15;17.80;99.90
35563;DHT22;21665;40.108;18.302;2022-10-16T17:31:44;17.90;99.90
35563;DHT22;21665;40.108;18.302;2022-10-16T17:34:11;17.80;99.90
35563;DHT22;21665;40.108;18.302;2022-10-16T17:36:39;17.80;99.90
35563;DHT22;21665;40.108;18.302;2022-10-16T17:39:11;17.80;99.90
35563;DHT22;21665;40.108;18.302;2022-10-16T17:41:38;17.80;99.90
35563;DHT22;21665;40.108;18.302;2022-10-16T17:44:06;17.80;99.90
35563;DHT22;21665;40.108;18.302;2022-10-16T17:46:34;17.70;99.90
35563;DHT22;21665;40.108;18.302;2022-10-16T17:49:02;17.70;99.90